Ladona, Pennsylvania
Current Conditions -  °F | °C
As of 5:56 PM on Tuesday 21 Oct 2014 (Local Time) from KELZ Reporting Station
Light Rain Light Rain  
Wind Chill: 45°   Ceiling: 3800
Heat Index: 48°   Visibility: 7mi
Dew Point: 46°   Wind: 6mph
Humidity: 93%   Direction: 310°NW
Pressure: 29.92"   Gusts: NA
Location:  41.7605°N, 77.9728°W
Report Text: KELZ 212156Z AUTO 31005KT 7SM -RA FEW027 BKN038 OVC049 09/08 A2992 RMK AO2 SLP138 P0009 T00890078
Loading
Personal Weather Stations






























Interactive Weather Map
Tropical Storm Tracking
New forecast layout! Learn more

10-Day Weather Forecast

Advertisements
Track Severe Weather on mobile